Time;durP1;ratioP1;P1;durP2;ratioP2;P2;SDS_P1;SDS_P2;PMS_P1;PMS_P2;Temp;Humidity;BMP_temperature;BMP_pressure;BME280_temperature;BME280_humidity;BME280_pressure;Samples;Min_cycle;Max_cycle;Signal;HPM_P1;HPM_P2
2024/01/23 00:01:37;;;;;;;5.50;1.75;;;;;;;;;;4966311;28;20411;-67
2024/01/23 00:04:07;;;;;;;5.60;1.70;;;;;;;;;;4971578;28;20207;-67
2024/01/23 00:06:35;;;;;;;10.05;2.50;;;;;;;;;;4971341;28;20238;-67
2024/01/23 00:09:03;;;;;;;3.50;1.50;;;;;;;;;;4974176;28;20210;-66
2024/01/23 00:11:31;;;;;;;9.35;1.98;;;;;;;;;;4973511;28;20229;-66
2024/01/23 00:14:00;;;;;;;3.88;1.55;;;;;;;;;;4974536;28;20217;-66
2024/01/23 00:16:28;;;;;;;12.50;2.60;;;;;;;;;;4972559;28;20211;-66
2024/01/23 00:18:56;;;;;;;7.18;2.15;;;;;;;;;;4964982;28;20266;-66
2024/01/23 00:21:25;;;;;;;11.90;1.92;;;;;;;;;;4967191;28;20202;-67
2024/01/23 00:23:54;;;;;;;4.80;2.00;;;;;;;;;;4974395;28;20207;-66
2024/01/23 00:26:22;;;;;;;6.03;2.22;;;;;;;;;;4971538;28;20191;-66
2024/01/23 00:28:50;;;;;;;10.05;2.10;;;;;;;;;;4961927;28;20199;-65
2024/01/23 00:31:21;;;;;;;7.70;2.50;;;;;;;;;;4962155;28;20219;-68
2024/01/23 00:33:52;;;;;;;8.43;2.78;;;;;;;;;;4969498;28;20192;-65
2024/01/23 00:36:20;;;;;;;5.95;1.60;;;;;;;;;;4959935;28;20205;-67
2024/01/23 00:38:50;;;;;;;5.03;1.42;;;;;;;;;;4973604;28;20221;-68
2024/01/23 00:41:18;;;;;;;5.70;2.13;;;;;;;;;;4965497;28;20234;-66
2024/01/23 00:43:46;;;;;;;9.32;1.88;;;;;;;;;;4964067;28;20541;-66
2024/01/23 00:46:14;;;;;;;9.80;2.03;;;;;;;;;;4953377;28;20266;-67
2024/01/23 00:48:43;;;;;;;5.20;2.00;;;;;;;;;;4970085;28;20218;-66
2024/01/23 00:51:11;;;;;;;9.60;1.85;;;;;;;;;;4968152;28;20227;-66
2024/01/23 00:53:39;;;;;;;10.57;1.75;;;;;;;;;;4954302;28;20211;-66
2024/01/23 00:56:09;;;;;;;10.07;2.50;;;;;;;;;;4953378;28;20247;-66
2024/01/23 00:58:37;;;;;;;7.57;1.45;;;;;;;;;;4954270;29;20223;-66
2024/01/23 01:01:05;;;;;;;9.88;2.65;;;;;;;;;;4963468;28;20200;-66
2024/01/23 01:03:34;;;;;;;8.13;2.13;;;;;;;;;;4957625;28;20202;-66
2024/01/23 01:06:03;;;;;;;4.72;1.73;;;;;;;;;;4970644;28;20249;-66
2024/01/23 01:08:31;;;;;;;4.93;1.50;;;;;;;;;;4973034;28;20206;-66
2024/01/23 01:10:59;;;;;;;1.92;1.50;;;;;;;;;;4974589;28;20281;-66
2024/01/23 01:13:29;;;;;;;2.25;1.27;;;;;;;;;;4953867;29;20227;-66
2024/01/23 01:15:58;;;;;;;10.23;1.88;;;;;;;;;;4953429;29;20214;-66
2024/01/23 01:18:26;;;;;;;4.80;1.45;;;;;;;;;;4974954;28;20196;-66
2024/01/23 01:20:55;;;;;;;4.35;1.15;;;;;;;;;;4964467;28;20674;-67
2024/01/23 01:23:23;;;;;;;2.97;1.25;;;;;;;;;;4965412;28;20196;-66
2024/01/23 01:25:51;;;;;;;5.95;2.45;;;;;;;;;;4957260;28;20745;-67
2024/01/23 01:28:19;;;;;;;2.78;1.40;;;;;;;;;;4964911;28;20196;-67
2024/01/23 01:30:49;;;;;;;7.57;1.58;;;;;;;;;;4967634;28;20203;-66
2024/01/23 01:33:18;;;;;;;6.75;1.70;;;;;;;;;;4986670;28;20210;-66
2024/01/23 01:35:46;;;;;;;6.65;1.42;;;;;;;;;;4972385;28;20207;-66
2024/01/23 01:38:14;;;;;;;6.72;1.80;;;;;;;;;;4970658;28;20210;-67
2024/01/23 01:40:43;;;;;;;3.80;1.10;;;;;;;;;;4966784;28;20202;-66
2024/01/23 01:43:23;;;;;;;6.38;1.35;;;;;;;;;;4965519;28;20213;-66
2024/01/23 01:45:58;;;;;;;6.43;1.73;;;;;;;;;;4987579;28;20207;-66
2024/01/23 01:48:26;;;;;;;2.92;1.45;;;;;;;;;;4972794;28;20191;-67
2024/01/23 01:50:54;;;;;;;6.35;1.98;;;;;;;;;;4965698;28;20215;-66
2024/01/23 01:53:22;;;;;;;10.25;2.10;;;;;;;;;;4954099;28;20207;-67
2024/01/23 01:55:51;;;;;;;11.70;2.00;;;;;;;;;;4952911;29;20332;-66
2024/01/23 01:58:19;;;;;;;6.55;1.58;;;;;;;;;;4963455;28;20254;-68
2024/01/23 02:00:49;;;;;;;11.75;1.73;;;;;;;;;;4975989;28;20203;-67
2024/01/23 02:03:18;;;;;;;11.30;2.83;;;;;;;;;;4975237;28;20665;-66
2024/01/23 02:05:47;;;;;;;7.93;2.75;;;;;;;;;;4974573;28;20253;-67
2024/01/23 02:08:16;;;;;;;10.15;2.30;;;;;;;;;;4976134;28;20207;-66
2024/01/23 02:10:45;;;;;;;8.18;2.58;;;;;;;;;;4971686;28;20203;-67
2024/01/23 02:13:13;;;;;;;19.88;3.03;;;;;;;;;;4964351;28;20220;-66
2024/01/23 02:15:41;;;;;;;9.45;2.10;;;;;;;;;;4956860;28;20207;-67
2024/01/23 02:18:09;;;;;;;13.73;3.60;;;;;;;;;;4956882;28;20216;-66
2024/01/23 02:20:39;;;;;;;16.98;2.72;;;;;;;;;;4959481;28;20207;-66
2024/01/23 02:23:11;;;;;;;11.93;2.50;;;;;;;;;;4974703;28;20207;-66
2024/01/23 02:25:41;;;;;;;12.93;2.88;;;;;;;;;;4974310;28;20584;-67
2024/01/23 02:28:09;;;;;;;16.58;3.53;;;;;;;;;;4974057;28;20210;-66
2024/01/23 02:30:38;;;;;;;10.45;2.65;;;;;;;;;;4972672;28;20200;-67
2024/01/23 02:33:06;;;;;;;15.35;2.95;;;;;;;;;;4975870;28;20231;-66
2024/01/23 02:35:35;;;;;;;19.10;2.83;;;;;;;;;;4966207;28;20200;-67
2024/01/23 02:38:03;;;;;;;14.05;3.60;;;;;;;;;;4963061;28;20212;-67
2024/01/23 02:40:31;;;;;;;14.95;2.72;;;;;;;;;;4966898;28;20204;-67
2024/01/23 02:43:01;;;;;;;15.68;2.70;;;;;;;;;;4970717;28;20277;-68
2024/01/23 02:45:29;;;;;;;15.75;3.30;;;;;;;;;;4973316;28;20243;-68
2024/01/23 02:47:57;;;;;;;15.05;3.92;;;;;;;;;;4963293;28;20210;-69
2024/01/23 02:50:26;;;;;;;18.35;3.47;;;;;;;;;;4956239;28;20295;-68
2024/01/23 02:52:54;;;;;;;12.02;2.55;;;;;;;;;;4963630;28;20223;-69
2024/01/23 02:55:23;;;;;;;19.05;4.40;;;;;;;;;;4962884;28;20605;-68
2024/01/23 02:57:51;;;;;;;9.13;2.97;;;;;;;;;;4972136;28;20604;-69
2024/01/23 03:00:21;;;;;;;14.68;3.35;;;;;;;;;;4964599;28;20207;-68
2024/01/23 03:02:49;;;;;;;18.83;7.68;;;;;;;;;;4954490;29;20219;-68
2024/01/23 03:05:18;;;;;;;6.75;3.55;;;;;;;;;;4963856;28;20242;-68
2024/01/23 03:07:46;;;;;;;11.23;3.22;;;;;;;;;;4971902;28;20211;-68
2024/01/23 03:10:15;;;;;;;12.07;3.47;;;;;;;;;;4975561;28;20211;-69
2024/01/23 03:12:44;;;;;;;12.35;4.45;;;;;;;;;;4973435;28;20217;-68
2024/01/23 03:15:12;;;;;;;19.65;8.13;;;;;;;;;;4975268;28;20207;-69
2024/01/23 03:17:42;;;;;;;15.48;6.07;;;;;;;;;;4989932;28;20207;-68
2024/01/23 03:20:12;;;;;;;14.57;3.30;;;;;;;;;;4974711;28;20211;-68
2024/01/23 03:22:40;;;;;;;12.65;5.82;;;;;;;;;;4973410;28;20692;-68
2024/01/23 03:25:09;;;;;;;31.30;16.88;;;;;;;;;;4975101;28;20207;-69
2024/01/23 03:27:37;;;;;;;19.77;10.20;;;;;;;;;;4970673;28;20203;-68
2024/01/23 03:30:06;;;;;;;32.95;14.00;;;;;;;;;;4968729;28;20643;-69
2024/01/23 03:32:34;;;;;;;19.17;11.23;;;;;;;;;;4972022;28;20231;-68
2024/01/23 03:35:04;;;;;;;40.50;20.42;;;;;;;;;;4958474;28;20211;-68
2024/01/23 03:37:32;;;;;;;25.33;8.98;;;;;;;;;;4969154;28;20273;-68
2024/01/23 03:40:00;;;;;;;16.77;8.45;;;;;;;;;;4974553;28;20222;-68
2024/01/23 03:42:28;;;;;;;12.95;3.58;;;;;;;;;;4972690;28;20198;-68
2024/01/23 03:44:57;;;;;;;16.48;3.80;;;;;;;;;;4966859;28;20207;-68
2024/01/23 03:47:25;;;;;;;17.75;4.63;;;;;;;;;;4955124;29;20701;-69
2024/01/23 03:49:53;;;;;;;15.93;3.13;;;;;;;;;;4965398;28;20207;-68
2024/01/23 03:52:23;;;;;;;11.27;3.22;;;;;;;;;;4958542;28;20230;-68
2024/01/23 03:54:51;;;;;;;12.85;3.58;;;;;;;;;;4955166;29;20210;-68
2024/01/23 03:57:20;;;;;;;16.95;4.25;;;;;;;;;;4966128;28;20236;-69
2024/01/23 03:59:48;;;;;;;13.45;3.47;;;;;;;;;;4974659;28;20213;-68
2024/01/23 04:02:16;;;;;;;9.15;2.15;;;;;;;;;;4965558;28;20650;-69
2024/01/23 04:04:45;;;;;;;16.30;2.63;;;;;;;;;;4973368;28;20211;-69
2024/01/23 04:07:13;;;;;;;22.85;3.50;;;;;;;;;;4970722;28;20289;-69
2024/01/23 04:09:43;;;;;;;14.00;2.80;;;;;;;;;;4958045;28;20212;-69
2024/01/23 04:12:11;;;;;;;13.25;2.65;;;;;;;;;;4968591;28;20234;-69
2024/01/23 04:14:40;;;;;;;14.13;3.15;;;;;;;;;;4961437;28;20204;-68
2024/01/23 04:17:09;;;;;;;29.90;3.60;;;;;;;;;;4962696;28;20208;-68
2024/01/23 04:19:37;;;;;;;25.02;4.05;;;;;;;;;;4963868;28;20215;-68
2024/01/23 04:22:06;;;;;;;8.45;3.10;;;;;;;;;;4962958;28;20200;-68
2024/01/23 04:24:37;;;;;;;16.55;2.50;;;;;;;;;;4965116;28;20204;-69
2024/01/23 04:27:07;;;;;;;8.07;3.08;;;;;;;;;;4958273;28;20662;-68
2024/01/23 04:29:35;;;;;;;10.55;2.78;;;;;;;;;;4957545;28;20204;-68
2024/01/23 04:32:04;;;;;;;15.88;3.30;;;;;;;;;;4965951;28;20203;-68
2024/01/23 04:34:32;;;;;;;8.57;2.20;;;;;;;;;;4973681;28;20207;-68
2024/01/23 04:37:00;;;;;;;18.63;3.70;;;;;;;;;;4971202;28;20204;-68
2024/01/23 04:39:28;;;;;;;13.20;2.85;;;;;;;;;;4960441;28;20226;-69
2024/01/23 04:41:56;;;;;;;17.58;3.20;;;;;;;;;;4964499;28;20286;-69
2024/01/23 04:44:26;;;;;;;17.23;2.50;;;;;;;;;;4967870;28;20199;-68
2024/01/23 04:46:54;;;;;;;16.35;2.92;;;;;;;;;;4961879;28;20215;-68
2024/01/23 04:49:22;;;;;;;9.02;2.97;;;;;;;;;;4971818;28;20265;-68
2024/01/23 04:51:51;;;;;;;13.32;2.40;;;;;;;;;;4971950;28;20214;-69
2024/01/23 04:54:19;;;;;;;17.65;2.95;;;;;;;;;;4973432;28;20231;-68
2024/01/23 04:56:47;;;;;;;10.70;2.30;;;;;;;;;;4971156;28;20247;-68
2024/01/23 04:59:15;;;;;;;8.57;2.22;;;;;;;;;;4973752;28;20610;-68
2024/01/23 05:01:45;;;;;;;16.00;2.67;;;;;;;;;;4963341;28;20213;-69
2024/01/23 05:04:13;;;;;;;13.75;2.97;;;;;;;;;;4972388;28;20199;-68
2024/01/23 05:06:41;;;;;;;12.70;2.65;;;;;;;;;;4971839;28;20237;-68
2024/01/23 05:09:09;;;;;;;10.68;2.78;;;;;;;;;;4972978;28;20207;-69
2024/01/23 05:11:38;;;;;;;11.18;3.15;;;;;;;;;;4968033;28;20249;-68
2024/01/23 05:14:06;;;;;;;8.20;1.90;;;;;;;;;;4964113;28;20231;-68
2024/01/23 05:16:35;;;;;;;6.97;1.90;;;;;;;;;;4960557;28;20578;-68
2024/01/23 05:19:04;;;;;;;16.10;2.63;;;;;;;;;;4960064;28;20214;-68
2024/01/23 05:21:32;;;;;;;10.98;2.70;;;;;;;;;;4962545;28;20214;-68
2024/01/23 05:24:02;;;;;;;8.90;3.40;;;;;;;;;;4987460;28;20277;-69
2024/01/23 05:26:30;;;;;;;10.63;2.83;;;;;;;;;;4968205;28;20203;-68
2024/01/23 05:28:58;;;;;;;8.35;2.22;;;;;;;;;;4960864;28;20278;-68
2024/01/23 05:31:26;;;;;;;8.30;2.58;;;;;;;;;;4967142;28;20200;-69
2024/01/23 05:33:55;;;;;;;15.77;2.85;;;;;;;;;;4964617;28;20219;-68
2024/01/23 05:36:24;;;;;;;7.88;3.00;;;;;;;;;;4971227;28;20661;-68
2024/01/23 05:38:52;;;;;;;10.07;2.50;;;;;;;;;;4959344;28;20226;-68
2024/01/23 05:41:21;;;;;;;7.95;2.10;;;;;;;;;;4959473;28;20199;-69
2024/01/23 05:43:50;;;;;;;9.75;2.20;;;;;;;;;;4957477;28;20208;-68
2024/01/23 05:46:19;;;;;;;8.57;2.65;;;;;;;;;;4971863;28;20679;-69
2024/01/23 05:48:47;;;;;;;12.00;2.30;;;;;;;;;;4957571;28;20702;-68
2024/01/23 05:51:15;;;;;;;6.97;1.60;;;;;;;;;;4971806;28;20601;-69
2024/01/23 05:53:44;;;;;;;9.95;1.60;;;;;;;;;;4976151;28;20215;-68
2024/01/23 05:56:12;;;;;;;8.40;2.50;;;;;;;;;;4964862;28;20210;-68
2024/01/23 05:58:43;;;;;;;4.82;2.13;;;;;;;;;;4972093;28;20187;-68
2024/01/23 06:01:12;;;;;;;11.05;2.17;;;;;;;;;;4967075;28;20692;-68
2024/01/23 06:03:40;;;;;;;5.07;1.90;;;;;;;;;;4967062;28;20253;-69
2024/01/23 06:06:09;;;;;;;5.75;3.33;;;;;;;;;;4967992;28;20235;-69
2024/01/23 06:08:37;;;;;;;5.10;2.13;;;;;;;;;;4966875;28;20211;-68
2024/01/23 06:11:07;;;;;;;5.97;2.45;;;;;;;;;;4976253;28;20207;-68
2024/01/23 06:13:35;;;;;;;14.30;2.50;;;;;;;;;;4971612;28;20220;-68
2024/01/23 06:16:04;;;;;;;7.88;1.95;;;;;;;;;;4966468;28;20643;-68
2024/01/23 06:18:32;;;;;;;7.32;2.20;;;;;;;;;;4967343;28;20685;-68
2024/01/23 06:21:00;;;;;;;10.18;2.10;;;;;;;;;;4963008;28;20215;-68
2024/01/23 06:23:28;;;;;;;9.00;2.45;;;;;;;;;;4967720;28;20667;-68
2024/01/23 06:25:56;;;;;;;8.50;2.25;;;;;;;;;;4960108;28;20208;-69
2024/01/23 06:28:26;;;;;;;6.47;1.98;;;;;;;;;;4969698;28;20209;-69
2024/01/23 06:30:54;;;;;;;4.13;1.50;;;;;;;;;;4973756;28;20670;-68
2024/01/23 06:33:22;;;;;;;8.70;1.80;;;;;;;;;;4966989;28;20238;-68
2024/01/23 06:35:51;;;;;;;7.80;2.03;;;;;;;;;;4976737;28;20311;-69
2024/01/23 06:38:19;;;;;;;7.53;2.80;;;;;;;;;;4969830;28;20766;-68
2024/01/23 06:40:47;;;;;;;13.57;2.97;;;;;;;;;;4957179;28;20208;-68
2024/01/23 06:43:15;;;;;;;11.27;2.58;;;;;;;;;;4959906;28;20200;-69
2024/01/23 06:45:45;;;;;;;10.18;2.20;;;;;;;;;;4970747;28;20203;-68
2024/01/23 06:48:13;;;;;;;6.32;2.20;;;;;;;;;;4971105;28;20196;-67
2024/01/23 06:50:44;;;;;;;7.88;2.67;;;;;;;;;;4967347;28;20199;-68
2024/01/23 06:53:12;;;;;;;7.85;2.30;;;;;;;;;;4974986;28;20195;-66
2024/01/23 06:55:40;;;;;;;8.93;2.28;;;;;;;;;;4977861;28;20735;-68
2024/01/23 06:58:08;;;;;;;9.25;2.15;;;;;;;;;;4978918;28;20322;-67
2024/01/23 07:00:37;;;;;;;7.93;2.28;;;;;;;;;;4958927;28;20255;-68
2024/01/23 07:03:08;;;;;;;9.82;2.05;;;;;;;;;;4975833;28;20286;-67
2024/01/23 07:05:36;;;;;;;10.23;2.30;;;;;;;;;;4978469;28;20229;-66
2024/01/23 07:08:05;;;;;;;5.82;1.90;;;;;;;;;;4978851;28;20215;-66
2024/01/23 07:10:33;;;;;;;8.98;2.25;;;;;;;;;;4971799;28;20204;-66
2024/01/23 07:13:01;;;;;;;10.18;2.70;;;;;;;;;;4962056;28;20291;-68
2024/01/23 07:15:29;;;;;;;9.38;2.90;;;;;;;;;;4963100;29;20294;-67
2024/01/23 07:17:57;;;;;;;13.63;2.50;;;;;;;;;;4958795;29;20721;-67
2024/01/23 07:20:27;;;;;;;9.57;2.83;;;;;;;;;;4959421;29;20287;-67
2024/01/23 07:22:55;;;;;;;7.63;1.90;;;;;;;;;;4964507;28;20275;-66
2024/01/23 07:25:23;;;;;;;5.18;2.08;;;;;;;;;;4959441;29;20722;-66
2024/01/23 07:27:52;;;;;;;17.63;3.67;;;;;;;;;;4959052;29;20239;-66
2024/01/23 07:30:20;;;;;;;14.27;3.10;;;;;;;;;;4961486;28;20295;-67
2024/01/23 07:32:48;;;;;;;13.25;3.42;;;;;;;;;;4963996;28;20279;-67
2024/01/23 07:35:16;;;;;;;7.25;2.10;;;;;;;;;;4962395;29;20299;-67
2024/01/23 07:37:46;;;;;;;7.95;2.97;;;;;;;;;;4962778;29;20298;-67
2024/01/23 07:40:15;;;;;;;11.68;2.85;;;;;;;;;;4959540;29;20208;-66
2024/01/23 07:42:43;;;;;;;9.80;2.65;;;;;;;;;;4971593;28;20213;-67
2024/01/23 07:45:12;;;;;;;10.50;2.75;;;;;;;;;;4990800;28;20203;-67
2024/01/23 07:47:40;;;;;;;16.38;3.08;;;;;;;;;;4977650;28;20213;-67
2024/01/23 07:50:08;;;;;;;6.38;2.78;;;;;;;;;;4980143;28;20314;-66
2024/01/23 07:52:37;;;;;;;13.10;3.15;;;;;;;;;;4963987;28;20208;-67
2024/01/23 07:55:07;;;;;;;12.90;3.28;;;;;;;;;;4956914;28;20232;-67
2024/01/23 07:57:35;;;;;;;33.65;4.60;;;;;;;;;;4956378;29;20250;-66
2024/01/23 08:00:03;;;;;;;9.93;3.63;;;;;;;;;;4978368;28;20211;-69
2024/01/23 08:02:32;;;;;;;12.93;3.45;;;;;;;;;;4969027;28;20287;-67
2024/01/23 08:05:00;;;;;;;14.90;3.53;;;;;;;;;;4959332;29;20288;-67
2024/01/23 08:07:28;;;;;;;13.82;2.85;;;;;;;;;;4975399;28;20263;-67
2024/01/23 08:09:57;;;;;;;13.63;3.70;;;;;;;;;;4978851;28;20290;-67
2024/01/23 08:12:26;;;;;;;15.43;4.07;;;;;;;;;;4978620;28;20286;-67
2024/01/23 08:14:54;;;;;;;10.27;2.85;;;;;;;;;;4981568;28;20382;-67
2024/01/23 08:17:23;;;;;;;16.08;4.85;;;;;;;;;;4978879;28;20282;-66
2024/01/23 08:19:51;;;;;;;12.63;5.03;;;;;;;;;;4980130;28;20625;-67
2024/01/23 08:22:19;;;;;;;26.42;4.47;;;;;;;;;;4974563;28;20205;-67
2024/01/23 08:24:47;;;;;;;11.68;3.70;;;;;;;;;;4980426;28;20610;-67
2024/01/23 08:27:15;;;;;;;13.23;3.60;;;;;;;;;;4980147;28;20316;-67
2024/01/23 08:29:45;;;;;;;19.15;3.70;;;;;;;;;;4981107;28;20290;-66
2024/01/23 08:32:13;;;;;;;9.60;3.75;;;;;;;;;;4970974;28;20288;-67
2024/01/23 08:34:41;;;;;;;14.15;3.05;;;;;;;;;;4960581;29;20750;-67
2024/01/23 08:37:10;;;;;;;13.52;3.60;;;;;;;;;;4959593;28;20334;-67
2024/01/23 08:39:39;;;;;;;13.20;3.50;;;;;;;;;;4956475;29;20208;-68
2024/01/23 08:42:08;;;;;;;16.90;3.90;;;;;;;;;;4964460;28;20209;-68
2024/01/23 08:44:36;;;;;;;14.52;4.05;;;;;;;;;;4977281;28;20275;-67
2024/01/23 08:47:07;;;;;;;12.10;3.30;;;;;;;;;;4977609;28;20223;-68
2024/01/23 08:49:35;;;;;;;20.63;4.40;;;;;;;;;;4977575;28;20302;-67
2024/01/23 08:52:03;;;;;;;17.27;4.28;;;;;;;;;;4969724;28;20656;-67
2024/01/23 08:54:33;;;;;;;13.07;5.10;;;;;;;;;;4982965;28;20286;-67
2024/01/23 08:57:01;;;;;;;12.15;3.72;;;;;;;;;;4968633;28;20288;-66
2024/01/23 08:59:30;;;;;;;20.63;3.90;;;;;;;;;;4980589;28;20620;-66
2024/01/23 09:01:58;;;;;;;17.25;4.40;;;;;;;;;;4963538;29;20727;-67
2024/01/23 09:04:27;;;;;;;9.15;3.92;;;;;;;;;;4959055;29;20623;-67
2024/01/23 09:06:56;;;;;;;14.07;3.33;;;;;;;;;;4962546;28;20294;-67
2024/01/23 09:09:24;;;;;;;25.27;4.18;;;;;;;;;;4981908;28;20291;-67
2024/01/23 09:11:53;;;;;;;14.75;4.38;;;;;;;;;;4978764;28;20305;-67
2024/01/23 09:14:21;;;;;;;10.25;3.72;;;;;;;;;;4978778;28;20645;-67
2024/01/23 09:16:49;;;;;;;11.70;3.55;;;;;;;;;;4963736;28;20211;-68
2024/01/23 09:19:17;;;;;;;10.40;3.95;;;;;;;;;;4958340;29;20208;-68
2024/01/23 09:21:48;;;;;;;12.98;4.45;;;;;;;;;;4964270;28;20646;-67
2024/01/23 09:24:16;;;;;;;10.85;3.60;;;;;;;;;;4977835;28;20247;-67
2024/01/23 09:26:44;;;;;;;14.77;3.80;;;;;;;;;;4975741;28;20202;-67
2024/01/23 09:29:13;;;;;;;12.90;3.83;;;;;;;;;;4976006;28;20199;-66
2024/01/23 09:31:47;;;;;;;10.48;3.70;;;;;;;;;;4964822;28;20270;-67
2024/01/23 09:34:15;;;;;;;16.60;3.65;;;;;;;;;;4954572;29;20184;-66
2024/01/23 09:36:43;;;;;;;17.85;4.47;;;;;;;;;;4959436;29;20274;-67
2024/01/23 09:39:14;;;;;;;16.92;3.83;;;;;;;;;;4970614;28;20799;-67
2024/01/23 09:41:46;;;;;;;14.48;2.97;;;;;;;;;;4976379;28;20553;-68
2024/01/23 09:44:15;;;;;;;13.93;4.05;;;;;;;;;;4974405;28;20195;-68
2024/01/23 09:46:44;;;;;;;16.63;3.60;;;;;;;;;;4977054;28;20330;-68
2024/01/23 09:49:12;;;;;;;15.80;4.80;;;;;;;;;;4969945;28;20635;-68
2024/01/23 09:51:42;;;;;;;10.55;3.95;;;;;;;;;;4973824;28;20205;-68
2024/01/23 09:54:11;;;;;;;16.73;4.13;;;;;;;;;;4973907;28;20254;-68
2024/01/23 09:56:40;;;;;;;11.82;4.13;;;;;;;;;;4974344;28;20243;-67
2024/01/23 09:59:09;;;;;;;15.05;4.35;;;;;;;;;;4973906;28;20614;-68
2024/01/23 10:01:37;;;;;;;15.57;4.80;;;;;;;;;;4969955;28;20643;-68
2024/01/23 10:04:06;;;;;;;7.57;3.50;;;;;;;;;;4953612;29;20216;-67
2024/01/23 10:06:35;;;;;;;9.15;3.65;;;;;;;;;;4966763;28;20216;-68
2024/01/23 10:09:04;;;;;;;18.75;5.32;;;;;;;;;;4976896;28;20284;-67
2024/01/23 10:11:35;;;;;;;10.27;4.40;;;;;;;;;;4970843;28;20208;-67
2024/01/23 10:14:04;;;;;;;15.85;4.53;;;;;;;;;;4957487;29;20599;-67
2024/01/23 10:16:33;;;;;;;12.40;4.50;;;;;;;;;;4961295;29;20359;-66
2024/01/23 10:19:02;;;;;;;16.35;4.60;;;;;;;;;;4959615;28;20258;-66
2024/01/23 10:21:30;;;;;;;13.63;5.47;;;;;;;;;;4963677;28;20287;-67
2024/01/23 10:23:58;;;;;;;15.13;5.90;;;;;;;;;;4980328;28;20244;-68
2024/01/23 10:26:26;;;;;;;15.80;5.30;;;;;;;;;;4972726;28;20275;-67
2024/01/23 10:28:55;;;;;;;11.75;4.80;;;;;;;;;;4964011;29;20291;-67
2024/01/23 10:31:24;;;;;;;16.13;5.30;;;;;;;;;;4961490;28;20287;-67
2024/01/23 10:33:54;;;;;;;17.67;5.70;;;;;;;;;;4979534;28;20297;-68
2024/01/23 10:36:22;;;;;;;13.70;6.60;;;;;;;;;;4977679;28;20238;-68
2024/01/23 10:38:51;;;;;;;12.48;6.05;;;;;;;;;;4977526;28;20211;-68
2024/01/23 10:41:19;;;;;;;17.27;5.70;;;;;;;;;;4978355;28;20210;-67
2024/01/23 10:43:48;;;;;;;13.18;5.75;;;;;;;;;;4978533;28;20267;-68
2024/01/23 10:46:16;;;;;;;14.30;7.10;;;;;;;;;;4970796;28;20191;-68
2024/01/23 10:48:46;;;;;;;10.93;6.53;;;;;;;;;;4979054;28;20206;-67
2024/01/23 10:51:18;;;;;;;15.90;6.50;;;;;;;;;;4979040;28;20262;-67
2024/01/23 10:53:57;;;;;;;19.77;7.72;;;;;;;;;;4976863;28;20247;-66
2024/01/23 10:56:25;;;;;;;13.65;7.28;;;;;;;;;;4980200;28;20290;-67
2024/01/23 10:59:01;;;;;;;13.95;7.60;;;;;;;;;;4977531;28;20255;-70
2024/01/23 11:01:32;;;;;;;26.05;10.95;;;;;;;;;;4964812;28;20192;-69
2024/01/23 11:04:02;;;;;;;19.23;7.90;;;;;;;;;;4960018;29;20796;-68
2024/01/23 11:06:33;;;;;;;10.25;7.50;;;;;;;;;;4968915;28;20334;-68
2024/01/23 11:09:03;;;;;;;13.00;8.43;;;;;;;;;;4979397;28;20278;-68
2024/01/23 11:11:36;;;;;;;16.20;8.52;;;;;;;;;;4981904;28;20251;-68
2024/01/23 11:14:11;;;;;;;15.93;9.95;;;;;;;;;;4979567;28;20595;-68
2024/01/23 11:16:40;;;;;;;13.00;8.18;;;;;;;;;;4973468;28;20229;-68
2024/01/23 11:19:09;;;;;;;12.65;7.00;;;;;;;;;;4974764;28;20591;-69
2024/01/23 11:21:38;;;;;;;14.63;7.50;;;;;;;;;;4973636;28;20845;-68
2024/01/23 11:24:06;;;;;;;14.65;5.20;;;;;;;;;;4959961;28;21091;-67
2024/01/23 11:26:35;;;;;;;13.43;3.55;;;;;;;;;;4973512;28;20231;-67
2024/01/23 11:29:05;;;;;;;12.68;3.83;;;;;;;;;;4983336;28;20262;-66
2024/01/23 11:31:38;;;;;;;14.70;4.68;;;;;;;;;;4970087;28;20286;-69
2024/01/23 11:34:39;;;;;;;11.88;3.90;;;;;;;;;;4975603;28;20192;-68
2024/01/23 11:37:22;;;;;;;12.10;3.70;;;;;;;;;;4886463;29;20248;-68
2024/01/23 11:39:53;;;;;;;10.13;3.65;;;;;;;;;;4964856;28;20199;-68
2024/01/23 11:42:21;;;;;;;19.67;3.97;;;;;;;;;;4967586;28;20202;-68
2024/01/23 11:44:49;;;;;;;17.35;4.70;;;;;;;;;;4976368;28;20231;-68
2024/01/23 11:47:18;;;;;;;16.40;4.55;;;;;;;;;;4977962;28;20195;-68
2024/01/23 11:49:46;;;;;;;11.45;3.50;;;;;;;;;;4978470;28;20199;-68
2024/01/23 11:52:14;;;;;;;14.23;3.90;;;;;;;;;;4983487;28;20262;-68
2024/01/23 11:54:43;;;;;;;16.08;4.05;;;;;;;;;;4983765;28;20263;-67
2024/01/23 11:57:13;;;;;;;15.20;4.43;;;;;;;;;;4973833;28;20698;-68
2024/01/23 11:59:42;;;;;;;11.48;3.88;;;;;;;;;;4961130;28;20261;-67
2024/01/23 12:02:12;;;;;;;10.32;3.70;;;;;;;;;;4970534;28;20206;-68
2024/01/23 12:04:40;;;;;;;19.67;4.50;;;;;;;;;;4975306;28;20286;-69
2024/01/23 12:07:08;;;;;;;13.25;3.95;;;;;;;;;;4971242;28;20230;-69
2024/01/23 12:09:36;;;;;;;11.40;4.00;;;;;;;;;;4974559;28;20225;-68
2024/01/23 12:12:05;;;;;;;10.63;3.95;;;;;;;;;;4974891;28;20654;-68
2024/01/23 12:14:34;;;;;;;14.43;4.05;;;;;;;;;;4975715;28;20217;-69
2024/01/23 12:17:04;;;;;;;15.90;3.75;;;;;;;;;;4976049;28;20237;-68
2024/01/23 12:19:44;;;;;;;12.98;3.88;;;;;;;;;;4972365;28;20206;-68
2024/01/23 12:22:12;;;;;;;12.80;3.65;;;;;;;;;;4973250;28;20201;-68
2024/01/23 12:24:41;;;;;;;13.85;3.55;;;;;;;;;;4988552;28;20203;-67
2024/01/23 12:27:09;;;;;;;13.98;5.68;;;;;;;;;;4986945;28;20204;-68
2024/01/23 12:29:41;;;;;;;8.98;4.15;;;;;;;;;;4976565;28;20207;-67
2024/01/23 12:32:11;;;;;;;13.40;3.45;;;;;;;;;;4968276;28;20196;-69
2024/01/23 12:34:41;;;;;;;21.90;4.10;;;;;;;;;;4978822;28;20338;-67
2024/01/23 12:37:09;;;;;;;12.73;3.42;;;;;;;;;;4991809;28;20700;-67
2024/01/23 12:39:37;;;;;;;14.50;3.13;;;;;;;;;;4973583;28;20222;-67
2024/01/23 12:42:06;;;;;;;15.30;4.38;;;;;;;;;;4971815;28;20259;-68
2024/01/23 12:44:34;;;;;;;9.57;3.05;;;;;;;;;;4963341;28;20199;-69
2024/01/23 12:47:08;;;;;;;12.88;3.70;;;;;;;;;;4972788;28;20204;-68
2024/01/23 12:49:37;;;;;;;18.83;6.32;;;;;;;;;;4971761;28;20206;-68
2024/01/23 12:52:14;;;;;;;9.35;3.85;;;;;;;;;;4972847;28;20211;-69
2024/01/23 12:54:43;;;;;;;9.82;3.38;;;;;;;;;;4965080;28;20204;-68
2024/01/23 12:57:12;;;;;;;10.30;3.08;;;;;;;;;;4991765;28;20727;-67
2024/01/23 12:59:40;;;;;;;10.00;2.85;;;;;;;;;;4975127;28;20211;-67
2024/01/23 13:02:10;;;;;;;10.05;3.10;;;;;;;;;;4986780;28;20234;-68
2024/01/23 13:04:38;;;;;;;12.88;2.90;;;;;;;;;;4970133;28;20203;-68
2024/01/23 13:07:06;;;;;;;13.23;4.00;;;;;;;;;;4965094;28;20557;-67
2024/01/23 13:09:34;;;;;;;11.45;3.45;;;;;;;;;;4977117;28;20290;-67
2024/01/23 13:12:03;;;;;;;17.40;4.32;;;;;;;;;;4971793;28;20218;-68
2024/01/23 13:14:34;;;;;;;13.25;4.50;;;;;;;;;;4976483;28;20242;-68
2024/01/23 13:17:02;;;;;;;13.00;3.80;;;;;;;;;;4972926;28;20223;-68
2024/01/23 13:19:32;;;;;;;13.70;3.65;;;;;;;;;;4974343;28;20218;-66
2024/01/23 13:22:03;;;;;;;19.77;5.10;;;;;;;;;;4971569;28;20287;-68
2024/01/23 13:24:31;;;;;;;15.18;4.72;;;;;;;;;;4975425;28;20213;-68
2024/01/23 13:27:06;;;;;;;11.77;3.63;;;;;;;;;;4977171;28;20203;-67
2024/01/23 13:29:34;;;;;;;24.55;3.88;;;;;;;;;;4963515;28;20233;-68
2024/01/23 13:35:06;;;;;;;9.77;3.70;;;;;;;;;;4867672;24;20247;-66
2024/01/23 13:37:34;;;;;;;12.68;3.95;;;;;;;;;;4847098;29;20371;-66
2024/01/23 13:40:03;;;;;;;15.45;4.18;;;;;;;;;;4852910;29;20250;-66
2024/01/23 13:42:31;;;;;;;6.82;2.50;;;;;;;;;;4854482;29;20292;-67
2024/01/23 13:44:59;;;;;;;11.40;4.00;;;;;;;;;;4870069;29;20264;-66
2024/01/23 13:47:28;;;;;;;19.33;4.13;;;;;;;;;;4858159;29;20239;-67
2024/01/23 13:49:56;;;;;;;11.90;3.95;;;;;;;;;;4855203;29;20244;-67
2024/01/23 13:52:25;;;;;;;22.75;4.22;;;;;;;;;;4855718;29;20231;-66
2024/01/23 13:54:54;;;;;;;18.77;4.93;;;;;;;;;;4856226;29;20275;-67
2024/01/23 13:57:22;;;;;;;10.00;3.53;;;;;;;;;;4857448;29;20279;-66
2024/01/23 13:59:50;;;;;;;18.95;3.67;;;;;;;;;;4858105;29;20267;-68
2024/01/23 14:02:18;;;;;;;19.75;5.00;;;;;;;;;;4859373;29;20247;-68
2024/01/23 14:04:47;;;;;;;17.70;4.97;;;;;;;;;;4860529;29;20272;-68
2024/01/23 14:07:15;;;;;;;11.75;3.60;;;;;;;;;;4864044;29;20283;-66
2024/01/23 14:09:45;;;;;;;16.77;3.35;;;;;;;;;;4847843;29;20285;-67
2024/01/23 14:12:13;;;;;;;18.63;3.85;;;;;;;;;;4857725;29;20239;-66
2024/01/23 14:14:41;;;;;;;13.32;3.28;;;;;;;;;;4853279;29;20263;-67
2024/01/23 14:17:09;;;;;;;13.60;3.92;;;;;;;;;;4857378;29;20322;-66
2024/01/23 14:19:38;;;;;;;12.73;3.80;;;;;;;;;;4850848;29;20268;-65
2024/01/23 14:22:08;;;;;;;8.00;2.80;;;;;;;;;;4858367;29;20651;-66
2024/01/23 14:24:37;;;;;;;17.88;3.45;;;;;;;;;;4859851;29;20267;-65
2024/01/23 14:27:06;;;;;;;11.63;3.60;;;;;;;;;;4858277;29;20242;-66
2024/01/23 14:29:35;;;;;;;15.77;4.72;;;;;;;;;;4858970;29;20239;-68
2024/01/23 14:32:03;;;;;;;17.65;4.45;;;;;;;;;;4859665;29;20254;-65
2024/01/23 14:34:31;;;;;;;20.15;6.65;;;;;;;;;;4859638;29;20287;-65
2024/01/23 14:36:59;;;;;;;14.40;5.20;;;;;;;;;;4856926;29;20243;-66
2024/01/23 14:39:28;;;;;;;21.52;6.45;;;;;;;;;;4858978;29;20272;-69
2024/01/23 14:41:59;;;;;;;21.17;6.13;;;;;;;;;;4858878;29;20239;-68
2024/01/23 14:44:35;;;;;;;15.27;8.75;;;;;;;;;;4870506;29;20301;-68
2024/01/23 14:47:05;;;;;;;10.70;4.28;;;;;;;;;;4863171;29;20227;-66